createdAt,value
2022-12-22T00:00:04.955Z,9.89
2022-12-22T00:02:58.091Z,10.11
2022-12-22T00:05:44.422Z,10.17
2022-12-22T00:08:29.621Z,10.16
2022-12-22T00:11:16.043Z,9.93
2022-12-22T00:14:03.143Z,9.70
2022-12-22T00:16:51.364Z,10.02
2022-12-22T00:19:37.186Z,10.15
2022-12-22T00:22:35.059Z,9.93
2022-12-22T00:25:21.716Z,9.68
2022-12-22T00:28:06.945Z,9.73
2022-12-22T00:30:52.175Z,10.03
2022-12-22T00:33:38.877Z,10.01
2022-12-22T00:36:26.500Z,10.05
2022-12-22T00:39:11.915Z,10.06
2022-12-22T00:41:57.028Z,10.15
2022-12-22T00:44:42.269Z,10.10
2022-12-22T00:47:42.178Z,10.04
2022-12-22T00:50:28.063Z,9.62
2022-12-22T00:53:13.824Z,9.96
2022-12-22T00:55:58.982Z,10.15
2022-12-22T00:58:44.261Z,10.10
2022-12-22T01:01:31.233Z,10.14
2022-12-22T01:04:16.377Z,10.12
2022-12-22T01:07:01.720Z,9.88
2022-12-22T01:09:47.117Z,10.30
2022-12-22T01:12:40.865Z,9.98
2022-12-22T01:15:35.241Z,10.20
2022-12-22T01:18:20.971Z,10.20
2022-12-22T01:21:06.054Z,9.89
2022-12-22T01:23:51.139Z,10.04
2022-12-22T01:26:36.461Z,10.16
2022-12-22T01:29:22.321Z,10.12
2022-12-22T01:32:07.523Z,10.29
2022-12-22T01:34:54.513Z,10.16
2022-12-22T01:37:39.711Z,9.79
2022-12-22T01:40:28.230Z,10.20
2022-12-22T01:43:13.430Z,10.09
2022-12-22T01:45:58.652Z,10.28
2022-12-22T01:48:48.877Z,10.21
2022-12-22T01:51:45.867Z,10.33
2022-12-22T01:54:32.745Z,10.29
2022-12-22T01:57:18.399Z,10.29
2022-12-22T02:00:03.927Z,10.23
2022-12-22T02:02:57.347Z,9.89
2022-12-22T02:05:42.487Z,9.83
2022-12-22T02:08:47.448Z,9.55
2022-12-22T02:11:38.839Z,10.31
2022-12-22T02:14:42.831Z,10.30
2022-12-22T02:17:49.903Z,9.92
2022-12-22T02:21:07.424Z,10.27
2022-12-22T02:24:30.331Z,10.30
2022-12-22T02:27:18.919Z,10.15
2022-12-22T02:30:14.449Z,10.19
2022-12-22T02:33:09.163Z,10.24
2022-12-22T02:36:27.250Z,10.31
2022-12-22T02:39:33.230Z,10.32
2022-12-22T02:42:29.481Z,10.31
2022-12-22T02:45:43.002Z,10.31
2022-12-22T02:48:41.810Z,10.36
2022-12-22T02:51:37.831Z,10.26
2022-12-22T02:54:25.770Z,10.26
2022-12-22T02:57:11.330Z,10.28
2022-12-22T02:59:56.498Z,10.24
2022-12-22T03:02:41.661Z,10.28
2022-12-22T03:05:26.813Z,10.36
2022-12-22T03:08:12.690Z,10.24
2022-12-22T03:10:58.013Z,10.32
2022-12-22T03:13:43.030Z,10.30
2022-12-22T03:16:28.290Z,10.29
2022-12-22T03:19:13.498Z,10.27
2022-12-22T03:21:59.360Z,10.29
2022-12-22T03:24:44.695Z,10.40
2022-12-22T03:27:11.336Z,10.27
2022-12-22T03:29:37.916Z,10.30
2022-12-22T03:32:04.896Z,10.29
2022-12-22T03:34:31.410Z,9.99
2022-12-22T03:36:57.925Z,10.27
2022-12-22T03:39:25.467Z,10.29
2022-12-22T03:42:10.581Z,10.47
2022-12-22T03:44:55.647Z,10.41
2022-12-22T03:47:23.181Z,10.41
2022-12-22T03:49:49.745Z,10.44
2022-12-22T03:52:16.250Z,10.42
2022-12-22T03:54:42.782Z,10.34
2022-12-22T03:57:09.292Z,10.47
2022-12-22T03:59:35.799Z,10.31
2022-12-22T04:02:02.634Z,10.46
2022-12-22T04:04:29.311Z,10.37
2022-12-22T04:06:55.926Z,10.13
2022-12-22T04:09:22.708Z,10.04
2022-12-22T04:12:07.939Z,10.30
2022-12-22T04:14:35.181Z,10.32
2022-12-22T04:17:03.478Z,10.32
2022-12-22T04:19:30.620Z,10.34
2022-12-22T04:21:57.219Z,10.38
2022-12-22T04:24:23.996Z,10.28
2022-12-22T04:26:51.099Z,10.20
2022-12-22T04:29:17.713Z,10.16
2022-12-22T04:31:44.320Z,10.18
2022-12-22T04:34:11.138Z,10.18
2022-12-22T04:36:37.756Z,10.24
2022-12-22T04:39:04.338Z,10.16
2022-12-22T04:41:30.961Z,10.27
2022-12-22T04:43:57.552Z,10.35
2022-12-22T04:46:24.156Z,10.36
2022-12-22T04:48:54.623Z,10.39
2022-12-22T04:51:26.135Z,10.26
2022-12-22T04:53:52.710Z,10.31
2022-12-22T04:56:19.234Z,10.37
2022-12-22T04:58:45.792Z,10.30
2022-12-22T05:01:15.808Z,10.42
2022-12-22T05:03:42.943Z,9.88
2022-12-22T05:06:11.423Z,10.31
2022-12-22T05:08:38.454Z,10.42
2022-12-22T05:11:05.366Z,10.39
2022-12-22T05:13:32.531Z,10.41
2022-12-22T05:16:11.774Z,10.47
2022-12-22T05:18:39.190Z,10.53
2022-12-22T05:21:14.898Z,10.52
2022-12-22T05:23:41.948Z,10.20
2022-12-22T05:26:08.862Z,10.48
2022-12-22T05:28:35.570Z,10.17
2022-12-22T05:31:10.926Z,10.60
2022-12-22T05:33:37.633Z,10.52
2022-12-22T05:36:04.488Z,10.10
2022-12-22T05:38:31.096Z,10.48
2022-12-22T05:41:03.580Z,10.39
2022-12-22T05:43:30.827Z,10.59
2022-12-22T05:45:58.601Z,10.58
2022-12-22T05:48:29.649Z,10.59
2022-12-22T05:51:00.758Z,10.66
2022-12-22T05:53:27.290Z,10.58
2022-12-22T05:55:53.853Z,10.58
2022-12-22T05:58:20.440Z,10.49
2022-12-22T06:00:48.015Z,10.67
2022-12-22T06:03:14.649Z,10.63
2022-12-22T06:05:41.565Z,10.38
2022-12-22T06:08:08.159Z,10.56
2022-12-22T06:10:34.651Z,10.50
2022-12-22T06:13:01.488Z,10.52
2022-12-22T06:15:28.022Z,10.48
2022-12-22T06:17:54.574Z,10.46
2022-12-22T06:20:21.118Z,10.40
2022-12-22T06:22:47.618Z,10.53
2022-12-22T06:25:18.438Z,10.41
2022-12-22T06:27:46.333Z,10.34
2022-12-22T06:30:13.558Z,10.36
2022-12-22T06:32:40.144Z,10.38
2022-12-22T06:35:09.701Z,9.82
2022-12-22T06:37:38.642Z,10.00
2022-12-22T06:40:06.128Z,10.44
2022-12-22T06:42:52.145Z,10.40
2022-12-22T06:45:18.764Z,10.30
2022-12-22T06:47:45.370Z,10.42
2022-12-22T06:50:11.928Z,10.21
2022-12-22T06:52:39.591Z,9.77
2022-12-22T06:55:06.360Z,10.26
2022-12-22T06:57:32.874Z,10.18
2022-12-22T06:59:59.428Z,10.31
2022-12-22T07:02:26.133Z,10.21
2022-12-22T07:04:52.774Z,10.22
2022-12-22T07:07:19.401Z,9.87
2022-12-22T07:09:46.921Z,9.94
2022-12-22T07:12:13.505Z,10.18
2022-12-22T07:14:40.128Z,10.11
2022-12-22T07:17:09.056Z,10.14
2022-12-22T07:19:35.727Z,10.16
2022-12-22T07:22:02.271Z,10.32
2022-12-22T07:24:29.395Z,10.18
2022-12-22T07:26:56.192Z,10.25
2022-12-22T07:29:23.475Z,10.22
2022-12-22T07:31:50.751Z,10.32
2022-12-22T07:34:17.377Z,10.02
2022-12-22T07:36:44.159Z,10.35
2022-12-22T07:39:12.231Z,10.22
2022-12-22T07:41:57.316Z,10.36
2022-12-22T07:44:24.458Z,10.30
2022-12-22T07:46:51.233Z,10.32
2022-12-22T07:49:36.506Z,10.09
2022-12-22T07:52:03.673Z,10.11
2022-12-22T07:54:30.317Z,9.69
2022-12-22T07:56:56.995Z,10.21
2022-12-22T07:59:23.675Z,10.16
2022-12-22T08:01:50.280Z,10.15
2022-12-22T08:04:17.164Z,10.18
2022-12-22T08:06:43.840Z,10.20
2022-12-22T08:09:15.143Z,10.21
2022-12-22T08:11:41.762Z,10.15
2022-12-22T08:14:08.405Z,10.21
2022-12-22T08:16:35.004Z,9.67
2022-12-22T08:19:01.490Z,9.91
2022-12-22T08:21:27.955Z,10.14
2022-12-22T08:23:54.427Z,10.18
2022-12-22T08:26:28.464Z,10.17
2022-12-22T08:29:10.429Z,10.20
2022-12-22T08:31:37.121Z,10.17
2022-12-22T08:34:07.711Z,10.11
2022-12-22T08:36:37.988Z,9.88
2022-12-22T08:39:05.180Z,10.17
2022-12-22T08:41:49.913Z,10.10
2022-12-22T08:44:23.317Z,9.75
2022-12-22T08:46:50.262Z,10.02
2022-12-22T08:49:17.487Z,10.17
2022-12-22T08:51:44.431Z,9.89
2022-12-22T08:54:11.238Z,10.03
2022-12-22T08:56:38.048Z,10.20
2022-12-22T08:59:07.696Z,10.50
2022-12-22T09:01:37.030Z,10.30
2022-12-22T09:04:04.623Z,10.52
2022-12-22T09:06:40.179Z,10.56
2022-12-22T09:09:10.113Z,10.52
2022-12-22T09:11:36.666Z,10.45
2022-12-22T09:14:04.188Z,10.48
2022-12-22T09:16:32.712Z,10.50
2022-12-22T09:18:59.810Z,10.42
2022-12-22T09:21:26.654Z,10.38
2022-12-22T09:23:55.148Z,10.31
2022-12-22T09:26:23.843Z,10.36
2022-12-22T09:28:51.199Z,10.31
2022-12-22T09:31:19.850Z,10.31
2022-12-22T09:33:46.564Z,10.09
2022-12-22T09:36:17.316Z,10.13
2022-12-22T09:38:44.134Z,10.05
2022-12-22T09:41:21.550Z,9.50
2022-12-22T09:43:48.428Z,10.14
2022-12-22T09:46:30.902Z,10.23
2022-12-22T09:48:58.630Z,10.60
2022-12-22T09:51:27.357Z,10.55
2022-12-22T09:53:58.804Z,10.26
2022-12-22T09:56:27.607Z,10.71
2022-12-22T09:58:54.281Z,11.60
2022-12-22T10:01:45.288Z,12.06
2022-12-22T10:04:27.800Z,12.53
2022-12-22T10:07:16.970Z,13.00
2022-12-22T10:09:50.178Z,13.40
2022-12-22T10:12:24.519Z,13.10
2022-12-22T10:14:53.650Z,13.17
2022-12-22T10:17:29.631Z,13.10
2022-12-22T10:20:19.723Z,12.71
2022-12-22T10:22:52.516Z,12.67
2022-12-22T10:25:51.867Z,12.02
2022-12-22T10:28:23.344Z,12.13
2022-12-22T10:30:50.132Z,11.32
2022-12-22T10:33:18.853Z,11.97
2022-12-22T10:35:53.240Z,12.30
2022-12-22T10:38:25.861Z,12.77
2022-12-22T10:41:00.174Z,12.81
2022-12-22T10:43:35.992Z,13.59
2022-12-22T10:46:04.014Z,14.17
2022-12-22T10:48:39.183Z,14.31
2022-12-22T10:51:08.492Z,14.58
2022-12-22T10:53:43.428Z,14.52
2022-12-22T10:56:20.947Z,13.83
2022-12-22T10:58:54.087Z,14.99
2022-12-22T11:01:30.214Z,15.98
2022-12-22T11:03:58.445Z,16.38
2022-12-22T11:06:25.127Z,16.35
2022-12-22T11:08:52.144Z,15.75
2022-12-22T11:11:33.569Z,15.70
2022-12-22T11:14:15.451Z,14.72
2022-12-22T11:17:03.162Z,14.28
2022-12-22T11:20:03.443Z,14.33
2022-12-22T11:22:55.982Z,14.75
2022-12-22T11:25:56.498Z,14.19
2022-12-22T11:29:00.502Z,14.26
2022-12-22T11:32:08.542Z,14.75
2022-12-22T11:35:02.755Z,15.44
2022-12-22T11:37:48.338Z,15.20
2022-12-22T11:40:31.953Z,14.37
2022-12-22T11:43:35.638Z,14.60
2022-12-22T11:46:24.014Z,14.12
2022-12-22T11:48:50.588Z,15.64
2022-12-22T11:51:46.259Z,16.39
2022-12-22T11:54:39.966Z,16.76
2022-12-22T11:57:25.213Z,15.33
2022-12-22T12:00:01.057Z,14.51
2022-12-22T12:03:04.828Z,14.96
2022-12-22T12:05:42.868Z,15.47
2022-12-22T12:08:24.767Z,15.77
2022-12-22T12:10:57.853Z,15.75
2022-12-22T12:13:30.111Z,15.32
2022-12-22T12:16:20.041Z,14.98
2022-12-22T12:19:24.754Z,14.71
2022-12-22T12:21:57.132Z,14.16
2022-12-22T12:24:23.543Z,14.90
2022-12-22T12:27:00.848Z,14.87
2022-12-22T12:29:34.459Z,14.32
2022-12-22T12:32:18.655Z,13.25
2022-12-22T12:35:00.861Z,13.15
2022-12-22T12:37:37.877Z,12.62
2022-12-22T12:40:16.578Z,12.71
2022-12-22T12:42:45.421Z,12.45
2022-12-22T12:45:35.576Z,12.72
2022-12-22T12:48:20.437Z,13.92
2022-12-22T12:50:57.802Z,14.00
2022-12-22T12:53:29.072Z,13.38
2022-12-22T12:55:58.412Z,12.76
2022-12-22T12:58:40.068Z,11.94
2022-12-22T13:01:11.636Z,12.14
2022-12-22T13:06:51.665Z,11.79
2022-12-22T13:12:54.847Z,11.78
2022-12-22T13:15:36.861Z,11.07
2022-12-22T13:18:11.791Z,11.54
2022-12-22T13:20:38.897Z,11.40
2022-12-22T13:23:13.327Z,11.67
2022-12-22T13:26:00.460Z,11.84
2022-12-22T13:28:27.940Z,11.44
2022-12-22T13:31:01.430Z,11.61
2022-12-22T13:33:32.172Z,11.49
2022-12-22T13:35:59.805Z,10.75
2022-12-22T13:38:28.029Z,11.20
2022-12-22T13:40:55.022Z,11.09
2022-12-22T13:43:21.599Z,10.55
2022-12-22T13:45:54.574Z,11.12
2022-12-22T13:48:26.132Z,11.18
2022-12-22T13:50:55.502Z,11.07
2022-12-22T13:54:07.132Z,11.25
2022-12-22T13:56:36.979Z,11.14
2022-12-22T13:59:04.668Z,11.14
2022-12-22T14:01:31.286Z,11.07
2022-12-22T14:04:04.424Z,11.02
2022-12-22T14:06:38.689Z,11.01
2022-12-22T14:09:20.629Z,11.00
2022-12-22T14:12:02.260Z,11.01
2022-12-22T14:14:34.836Z,10.59
2022-12-22T14:17:01.613Z,11.09
2022-12-22T14:19:33.009Z,10.85
2022-12-22T14:22:22.828Z,11.14
2022-12-22T14:24:58.601Z,11.09
2022-12-22T14:27:42.069Z,10.92
2022-12-22T14:30:17.614Z,11.02
2022-12-22T14:32:54.765Z,11.12
2022-12-22T14:35:21.933Z,11.14
2022-12-22T14:37:50.601Z,10.36
2022-12-22T14:40:35.567Z,10.99
2022-12-22T14:43:05.597Z,10.99
2022-12-22T14:45:32.992Z,10.99
2022-12-22T14:47:59.501Z,10.94
2022-12-22T14:50:28.009Z,10.98
2022-12-22T14:53:05.062Z,10.90
2022-12-22T14:55:39.521Z,10.89
2022-12-22T14:58:08.725Z,10.85
2022-12-22T15:01:13.712Z,10.72
2022-12-22T15:03:40.529Z,10.60
2022-12-22T15:06:23.110Z,10.51
2022-12-22T15:08:52.570Z,10.25
2022-12-22T15:11:21.669Z,10.23
2022-12-22T15:13:49.896Z,10.21
2022-12-22T15:16:19.901Z,10.10
2022-12-22T15:18:47.221Z,10.13
2022-12-22T15:21:16.122Z,9.73
2022-12-22T15:23:43.448Z,10.13
2022-12-22T15:26:10.634Z,10.11
2022-12-22T15:28:37.467Z,9.57
2022-12-22T15:31:11.451Z,10.04
2022-12-22T15:33:38.016Z,9.95
2022-12-22T15:36:06.244Z,10.05
2022-12-22T15:38:38.517Z,9.90
2022-12-22T15:41:06.197Z,9.99
2022-12-22T15:46:22.131Z,9.76
2022-12-22T15:48:48.881Z,9.51
2022-12-22T15:51:24.702Z,9.02
2022-12-22T15:53:51.711Z,9.15
2022-12-22T15:56:22.689Z,9.40
2022-12-22T15:58:49.615Z,9.34
2022-12-22T16:01:16.472Z,8.88
2022-12-22T16:03:48.718Z,9.41
2022-12-22T16:06:17.591Z,8.89
2022-12-22T16:08:55.329Z,8.73
2022-12-22T16:11:21.943Z,9.20
2022-12-22T16:13:50.150Z,9.31
2022-12-22T16:16:17.023Z,9.11
2022-12-22T16:18:43.603Z,9.29
2022-12-22T16:21:17.945Z,9.11
2022-12-22T16:23:47.474Z,9.21
2022-12-22T16:26:17.977Z,9.09
2022-12-22T16:28:44.594Z,9.20
2022-12-22T16:31:23.115Z,8.64
2022-12-22T16:33:50.487Z,9.22
2022-12-22T16:36:17.045Z,9.19
2022-12-22T16:38:52.062Z,9.09
2022-12-22T16:41:23.815Z,8.67
2022-12-22T16:43:51.769Z,8.74
2022-12-22T16:46:20.678Z,9.21
2022-12-22T16:48:56.700Z,8.72
2022-12-22T16:51:29.348Z,9.19
2022-12-22T16:53:55.846Z,9.23
2022-12-22T16:56:26.593Z,9.01
2022-12-22T16:58:53.164Z,8.96
2022-12-22T17:01:41.461Z,9.21
2022-12-22T17:04:13.526Z,9.24
2022-12-22T17:06:41.538Z,9.09
2022-12-22T17:09:13.559Z,9.25
2022-12-22T17:11:40.162Z,8.71
2022-12-22T17:14:20.506Z,8.74
2022-12-22T17:16:46.981Z,8.69
2022-12-22T17:19:13.418Z,8.72
2022-12-22T17:21:40.000Z,9.28
2022-12-22T17:24:07.195Z,9.24
2022-12-22T17:26:36.571Z,9.12
2022-12-22T17:29:04.191Z,9.17
2022-12-22T17:31:30.770Z,9.11
2022-12-22T17:33:57.724Z,9.20
2022-12-22T17:36:37.197Z,9.25
2022-12-22T17:39:04.637Z,8.98
2022-12-22T17:41:31.447Z,9.26
2022-12-22T17:43:58.057Z,9.39
2022-12-22T17:46:24.800Z,9.41
2022-12-22T17:48:51.420Z,9.26
2022-12-22T17:51:29.310Z,9.40
2022-12-22T17:53:58.684Z,9.30
2022-12-22T17:56:27.475Z,9.13
2022-12-22T17:58:54.198Z,9.35
2022-12-22T18:01:22.035Z,9.48
2022-12-22T18:03:48.670Z,9.33
2022-12-22T18:06:18.402Z,9.28
2022-12-22T18:08:46.137Z,9.14
2022-12-22T18:11:13.074Z,9.53
2022-12-22T18:13:40.185Z,9.59
2022-12-22T18:16:09.134Z,9.55
2022-12-22T18:18:35.701Z,9.66
2022-12-22T18:21:05.788Z,9.36
2022-12-22T18:23:36.857Z,9.81
2022-12-22T18:26:06.112Z,9.96
2022-12-22T18:28:32.650Z,9.88
2022-12-22T18:30:59.316Z,10.08
2022-12-22T18:33:26.100Z,10.07
2022-12-22T18:35:52.911Z,10.09
2022-12-22T18:38:29.641Z,10.13
2022-12-22T18:40:56.709Z,10.31
2022-12-22T18:43:23.845Z,9.62
2022-12-22T18:45:50.423Z,10.25
2022-12-22T18:48:17.001Z,10.38
2022-12-22T18:50:43.603Z,10.47
2022-12-22T18:53:24.364Z,10.44
2022-12-22T18:55:50.919Z,10.53
2022-12-22T18:58:17.699Z,10.49
2022-12-22T19:00:44.680Z,10.56
2022-12-22T19:03:30.502Z,10.60
2022-12-22T19:05:58.030Z,10.79
2022-12-22T19:08:27.786Z,10.68
2022-12-22T19:11:05.001Z,10.57
2022-12-22T19:13:35.136Z,10.86
2022-12-22T19:16:02.318Z,10.90
2022-12-22T19:18:28.982Z,10.81
2022-12-22T19:20:56.225Z,10.34
2022-12-22T19:23:24.806Z,10.21
2022-12-22T19:25:53.755Z,10.86
2022-12-22T19:28:42.522Z,10.85
2022-12-22T19:31:20.673Z,10.87
2022-12-22T19:33:47.568Z,10.99
2022-12-22T19:36:17.006Z,10.74
2022-12-22T19:38:49.939Z,10.57
2022-12-22T19:41:36.770Z,10.91
2022-12-22T19:44:03.724Z,10.97
2022-12-22T19:46:34.121Z,10.74
2022-12-22T19:49:01.128Z,10.60
2022-12-22T19:51:28.605Z,10.94
2022-12-22T19:53:55.300Z,10.65
2022-12-22T19:56:28.090Z,10.97
2022-12-22T19:58:56.143Z,11.03
2022-12-22T20:01:22.875Z,11.16
2022-12-22T20:03:49.632Z,11.04
2022-12-22T20:06:17.587Z,11.00
2022-12-22T20:08:44.747Z,10.95
2022-12-22T20:11:18.212Z,10.74
2022-12-22T20:13:46.677Z,10.96
2022-12-22T20:16:14.795Z,11.24
2022-12-22T20:18:42.263Z,11.21
2022-12-22T20:21:25.657Z,11.06
2022-12-22T20:23:53.822Z,11.17
2022-12-22T20:26:24.761Z,11.27
2022-12-22T20:28:52.715Z,10.83
2022-12-22T20:31:22.631Z,11.09
2022-12-22T20:33:49.922Z,11.18
2022-12-22T20:36:23.791Z,10.53
2022-12-22T20:38:54.633Z,11.09
2022-12-22T20:41:21.883Z,11.22
2022-12-22T20:43:49.093Z,10.97
2022-12-22T20:46:19.797Z,11.13
2022-12-22T20:48:56.151Z,11.08
2022-12-22T20:51:25.102Z,10.80
2022-12-22T20:53:53.157Z,11.18
2022-12-22T20:56:31.726Z,11.08
2022-12-22T20:59:01.796Z,10.92
2022-12-22T21:01:28.608Z,11.22
2022-12-22T21:03:55.438Z,10.98
2022-12-22T21:06:26.553Z,11.19
2022-12-22T21:08:54.957Z,10.90
2022-12-22T21:11:21.981Z,11.25
2022-12-22T21:13:49.769Z,11.11
2022-12-22T21:16:19.288Z,11.21
2022-12-22T21:18:46.391Z,11.28
2022-12-22T21:21:13.103Z,11.29
2022-12-22T21:23:39.664Z,11.44
2022-12-22T21:26:30.917Z,11.36
2022-12-22T21:28:58.464Z,10.69
2022-12-22T21:31:25.066Z,11.27
2022-12-22T21:33:51.668Z,11.44
2022-12-22T21:36:31.551Z,11.36
2022-12-22T21:39:06.045Z,11.31
2022-12-22T21:41:50.898Z,11.46
2022-12-22T21:44:17.532Z,10.98
2022-12-22T21:46:45.698Z,11.02
2022-12-22T21:49:24.095Z,11.54
2022-12-22T21:51:52.046Z,11.35
2022-12-22T21:54:20.292Z,11.39
2022-12-22T21:56:47.704Z,11.16
2022-12-22T21:59:14.722Z,11.43
2022-12-22T22:01:42.791Z,11.50
2022-12-22T22:04:09.440Z,11.33
2022-12-22T22:06:36.080Z,11.40
2022-12-22T22:09:05.066Z,11.58
2022-12-22T22:11:33.149Z,11.41
2022-12-22T22:13:59.813Z,11.45
2022-12-22T22:16:26.471Z,11.46
2022-12-22T22:18:53.013Z,11.25
2022-12-22T22:21:19.549Z,11.43
2022-12-22T22:23:46.108Z,11.38
2022-12-22T22:26:12.594Z,11.43
2022-12-22T22:28:39.171Z,11.58
2022-12-22T22:31:10.446Z,11.11
2022-12-22T22:33:37.332Z,11.53
2022-12-22T22:36:06.240Z,11.51
2022-12-22T22:38:32.870Z,11.47
2022-12-22T22:40:59.592Z,11.30
2022-12-22T22:43:26.155Z,11.47
2022-12-22T22:45:52.676Z,11.66
2022-12-22T22:48:21.392Z,11.13
2022-12-22T22:50:48.873Z,11.52
2022-12-22T22:53:15.473Z,11.34
2022-12-22T22:55:42.109Z,11.40
2022-12-22T22:58:11.311Z,11.30
2022-12-22T23:00:38.553Z,11.33
2022-12-22T23:03:05.436Z,11.23
2022-12-22T23:05:32.565Z,11.09
2022-12-22T23:07:59.188Z,11.18
2022-12-22T23:10:25.859Z,11.07
2022-12-22T23:12:52.364Z,10.68
2022-12-22T23:15:19.032Z,11.12
2022-12-22T23:17:45.689Z,11.00
2022-12-22T23:20:12.403Z,11.22
2022-12-22T23:22:39.052Z,11.07
2022-12-22T23:25:05.860Z,10.69
2022-12-22T23:27:32.489Z,11.13
2022-12-22T23:29:58.992Z,11.03
2022-12-22T23:32:25.771Z,11.18
2022-12-22T23:34:52.334Z,10.92
2022-12-22T23:37:19.880Z,10.98
2022-12-22T23:39:46.777Z,11.17
2022-12-22T23:42:13.383Z,10.57
2022-12-22T23:44:39.988Z,11.18
2022-12-22T23:47:06.797Z,11.18
2022-12-22T23:49:33.304Z,11.18
2022-12-22T23:51:59.860Z,10.70
2022-12-22T23:54:26.386Z,10.94
2022-12-22T23:56:52.897Z,11.04
2022-12-22T23:59:19.431Z,10.99
